sensor_id;sensor_type;location;lat;lon;timestamp;P1;durP1;ratioP1;P2;durP2;ratioP2
28682;SDS011;15862;43.062;25.626;2022-12-18T00:03:58;18.92;;;11.60;;
28682;SDS011;15862;43.062;25.626;2022-12-18T00:06:25;25.30;;;12.43;;
28682;SDS011;15862;43.062;25.626;2022-12-18T00:08:52;19.73;;;12.38;;
28682;SDS011;15862;43.062;25.626;2022-12-18T00:11:19;19.45;;;12.75;;
28682;SDS011;15862;43.062;25.626;2022-12-18T00:13:46;15.00;;;9.35;;
28682;SDS011;15862;43.062;25.626;2022-12-18T00:16:13;16.63;;;10.93;;
28682;SDS011;15862;43.062;25.626;2022-12-18T00:18:44;16.52;;;9.88;;
28682;SDS011;15862;43.062;25.626;2022-12-18T00:21:10;12.20;;;7.97;;
28682;SDS011;15862;43.062;25.626;2022-12-18T00:23:37;12.80;;;7.70;;
28682;SDS011;15862;43.062;25.626;2022-12-18T00:26:09;14.50;;;7.88;;
28682;SDS011;15862;43.062;25.626;2022-12-18T00:28:36;13.63;;;9.00;;
28682;SDS011;15862;43.062;25.626;2022-12-18T00:33:27;15.10;;;9.05;;
28682;SDS011;15862;43.062;25.626;2022-12-18T00:35:53;15.30;;;10.05;;
28682;SDS011;15862;43.062;25.626;2022-12-18T00:38:18;16.45;;;10.35;;
28682;SDS011;15862;43.062;25.626;2022-12-18T00:40:44;16.63;;;10.68;;
28682;SDS011;15862;43.062;25.626;2022-12-18T00:43:09;14.73;;;9.13;;
28682;SDS011;15862;43.062;25.626;2022-12-18T00:45:34;14.60;;;9.70;;
28682;SDS011;15862;43.062;25.626;2022-12-18T00:48:00;15.35;;;9.85;;
28682;SDS011;15862;43.062;25.626;2022-12-18T00:50:25;12.75;;;9.18;;
28682;SDS011;15862;43.062;25.626;2022-12-18T00:52:51;14.68;;;9.18;;
28682;SDS011;15862;43.062;25.626;2022-12-18T00:55:17;13.52;;;9.50;;
28682;SDS011;15862;43.062;25.626;2022-12-18T00:57:43;15.13;;;8.93;;
28682;SDS011;15862;43.062;25.626;2022-12-18T01:00:10;14.07;;;8.88;;
28682;SDS011;15862;43.062;25.626;2022-12-18T01:02:37;14.32;;;9.10;;
28682;SDS011;15862;43.062;25.626;2022-12-18T01:05:03;12.57;;;8.70;;
28682;SDS011;15862;43.062;25.626;2022-12-18T01:07:29;13.40;;;8.68;;
28682;SDS011;15862;43.062;25.626;2022-12-18T01:09:54;13.43;;;8.80;;
28682;SDS011;15862;43.062;25.626;2022-12-18T01:12:20;13.20;;;8.57;;
28682;SDS011;15862;43.062;25.626;2022-12-18T01:14:45;15.07;;;9.00;;
28682;SDS011;15862;43.062;25.626;2022-12-18T01:17:11;18.13;;;9.05;;
28682;SDS011;15862;43.062;25.626;2022-12-18T01:19:36;13.23;;;9.10;;
28682;SDS011;15862;43.062;25.626;2022-12-18T01:22:01;14.13;;;9.85;;
28682;SDS011;15862;43.062;25.626;2022-12-18T01:24:27;14.48;;;8.98;;
28682;SDS011;15862;43.062;25.626;2022-12-18T01:26:52;12.82;;;8.27;;
28682;SDS011;15862;43.062;25.626;2022-12-18T01:29:18;13.20;;;9.60;;
28682;SDS011;15862;43.062;25.626;2022-12-18T01:31:43;13.02;;;8.55;;
28682;SDS011;15862;43.062;25.626;2022-12-18T01:34:08;15.98;;;8.07;;
28682;SDS011;15862;43.062;25.626;2022-12-18T01:36:35;14.68;;;9.63;;
28682;SDS011;15862;43.062;25.626;2022-12-18T01:39:06;19.25;;;10.13;;
28682;SDS011;15862;43.062;25.626;2022-12-18T01:47:22;21.40;;;9.95;;
28682;SDS011;15862;43.062;25.626;2022-12-18T01:49:49;13.90;;;9.15;;
28682;SDS011;15862;43.062;25.626;2022-12-18T01:52:15;15.93;;;9.45;;
28682;SDS011;15862;43.062;25.626;2022-12-18T01:54:41;13.00;;;9.13;;
28682;SDS011;15862;43.062;25.626;2022-12-18T01:57:07;13.02;;;9.25;;
28682;SDS011;15862;43.062;25.626;2022-12-18T01:59:33;14.18;;;8.60;;
28682;SDS011;15862;43.062;25.626;2022-12-18T02:01:59;14.75;;;9.68;;
28682;SDS011;15862;43.062;25.626;2022-12-18T02:04:25;15.27;;;10.10;;
28682;SDS011;15862;43.062;25.626;2022-12-18T02:06:55;15.13;;;10.13;;
28682;SDS011;15862;43.062;25.626;2022-12-18T02:09:32;19.05;;;10.50;;
28682;SDS011;15862;43.062;25.626;2022-12-18T02:12:10;15.85;;;9.52;;
28682;SDS011;15862;43.062;25.626;2022-12-18T02:20:02;14.10;;;9.23;;
28682;SDS011;15862;43.062;25.626;2022-12-18T02:28:09;16.80;;;10.82;;
28682;SDS011;15862;43.062;25.626;2022-12-18T02:30:38;15.02;;;8.48;;
28682;SDS011;15862;43.062;25.626;2022-12-18T02:33:06;16.48;;;9.85;;
28682;SDS011;15862;43.062;25.626;2022-12-18T02:35:34;14.00;;;9.40;;
28682;SDS011;15862;43.062;25.626;2022-12-18T02:38:02;15.95;;;9.93;;
28682;SDS011;15862;43.062;25.626;2022-12-18T02:40:29;14.30;;;9.32;;
28682;SDS011;15862;43.062;25.626;2022-12-18T02:42:55;12.43;;;8.73;;
28682;SDS011;15862;43.062;25.626;2022-12-18T02:45:26;17.48;;;9.77;;
28682;SDS011;15862;43.062;25.626;2022-12-18T02:47:52;10.95;;;7.90;;
28682;SDS011;15862;43.062;25.626;2022-12-18T02:50:19;14.15;;;9.57;;
28682;SDS011;15862;43.062;25.626;2022-12-18T03:00:48;17.35;;;10.80;;
28682;SDS011;15862;43.062;25.626;2022-12-18T03:03:42;14.25;;;9.25;;
28682;SDS011;15862;43.062;25.626;2022-12-18T03:06:32;16.02;;;9.73;;
28682;SDS011;15862;43.062;25.626;2022-12-18T03:09:04;14.93;;;9.27;;
28682;SDS011;15862;43.062;25.626;2022-12-18T03:11:35;17.45;;;10.13;;
28682;SDS011;15862;43.062;25.626;2022-12-18T03:14:22;18.08;;;10.07;;
28682;SDS011;15862;43.062;25.626;2022-12-18T03:16:50;17.13;;;9.80;;
28682;SDS011;15862;43.062;25.626;2022-12-18T03:19:21;13.77;;;8.68;;
28682;SDS011;15862;43.062;25.626;2022-12-18T03:21:55;15.73;;;9.30;;
28682;SDS011;15862;43.062;25.626;2022-12-18T03:24:23;16.77;;;9.82;;
28682;SDS011;15862;43.062;25.626;2022-12-18T03:26:51;14.20;;;9.25;;
28682;SDS011;15862;43.062;25.626;2022-12-18T03:29:27;13.98;;;8.75;;
28682;SDS011;15862;43.062;25.626;2022-12-18T03:32:02;14.00;;;9.02;;
28682;SDS011;15862;43.062;25.626;2022-12-18T03:34:33;12.98;;;8.55;;
28682;SDS011;15862;43.062;25.626;2022-12-18T03:37:02;15.20;;;8.82;;
28682;SDS011;15862;43.062;25.626;2022-12-18T03:39:29;16.75;;;9.45;;
28682;SDS011;15862;43.062;25.626;2022-12-18T03:41:58;14.07;;;9.27;;
28682;SDS011;15862;43.062;25.626;2022-12-18T03:44:33;18.73;;;10.88;;
28682;SDS011;15862;43.062;25.626;2022-12-18T03:47:25;14.50;;;9.10;;
28682;SDS011;15862;43.062;25.626;2022-12-18T03:52:37;15.35;;;8.60;;
28682;SDS011;15862;43.062;25.626;2022-12-18T03:55:08;16.52;;;10.25;;
28682;SDS011;15862;43.062;25.626;2022-12-18T03:57:35;14.27;;;10.25;;
28682;SDS011;15862;43.062;25.626;2022-12-18T04:00:07;18.45;;;9.63;;
28682;SDS011;15862;43.062;25.626;2022-12-18T04:02:36;15.52;;;10.23;;
28682;SDS011;15862;43.062;25.626;2022-12-18T04:05:05;16.75;;;10.85;;
28682;SDS011;15862;43.062;25.626;2022-12-18T04:07:32;17.95;;;10.27;;
28682;SDS011;15862;43.062;25.626;2022-12-18T04:09:58;18.98;;;11.82;;
28682;SDS011;15862;43.062;25.626;2022-12-18T04:12:26;17.83;;;11.93;;
28682;SDS011;15862;43.062;25.626;2022-12-18T04:14:54;18.17;;;10.98;;
28682;SDS011;15862;43.062;25.626;2022-12-18T04:17:20;21.75;;;11.38;;
28682;SDS011;15862;43.062;25.626;2022-12-18T04:19:46;22.83;;;13.88;;
28682;SDS011;15862;43.062;25.626;2022-12-18T04:22:11;22.02;;;14.25;;
28682;SDS011;15862;43.062;25.626;2022-12-18T04:24:37;26.55;;;16.30;;
28682;SDS011;15862;43.062;25.626;2022-12-18T04:27:03;23.05;;;13.05;;
28682;SDS011;15862;43.062;25.626;2022-12-18T04:29:28;22.60;;;13.43;;
28682;SDS011;15862;43.062;25.626;2022-12-18T04:31:54;26.42;;;15.48;;
28682;SDS011;15862;43.062;25.626;2022-12-18T04:34:19;27.63;;;15.75;;
28682;SDS011;15862;43.062;25.626;2022-12-18T04:36:46;26.67;;;17.10;;
28682;SDS011;15862;43.062;25.626;2022-12-18T04:39:11;25.65;;;16.42;;
28682;SDS011;15862;43.062;25.626;2022-12-18T04:41:37;26.05;;;16.80;;
28682;SDS011;15862;43.062;25.626;2022-12-18T04:44:02;23.80;;;15.23;;
28682;SDS011;15862;43.062;25.626;2022-12-18T04:46:28;22.98;;;15.50;;
28682;SDS011;15862;43.062;25.626;2022-12-18T04:48:53;21.92;;;13.90;;
28682;SDS011;15862;43.062;25.626;2022-12-18T04:51:19;21.77;;;13.88;;
28682;SDS011;15862;43.062;25.626;2022-12-18T04:53:44;23.13;;;13.45;;
28682;SDS011;15862;43.062;25.626;2022-12-18T04:56:11;23.40;;;14.32;;
28682;SDS011;15862;43.062;25.626;2022-12-18T04:58:39;21.80;;;13.63;;
28682;SDS011;15862;43.062;25.626;2022-12-18T05:01:05;22.48;;;15.68;;
28682;SDS011;15862;43.062;25.626;2022-12-18T05:03:35;26.73;;;15.65;;
28682;SDS011;15862;43.062;25.626;2022-12-18T05:06:01;18.77;;;13.15;;
28682;SDS011;15862;43.062;25.626;2022-12-18T05:08:27;23.55;;;13.18;;
28682;SDS011;15862;43.062;25.626;2022-12-18T05:11:00;27.35;;;15.57;;
28682;SDS011;15862;43.062;25.626;2022-12-18T05:13:28;27.77;;;15.93;;
28682;SDS011;15862;43.062;25.626;2022-12-18T05:15:55;23.60;;;16.00;;
28682;SDS011;15862;43.062;25.626;2022-12-18T05:18:20;24.92;;;15.85;;
28682;SDS011;15862;43.062;25.626;2022-12-18T05:20:46;25.20;;;16.35;;
28682;SDS011;15862;43.062;25.626;2022-12-18T05:23:12;28.55;;;16.48;;
28682;SDS011;15862;43.062;25.626;2022-12-18T05:25:38;23.50;;;15.38;;
28682;SDS011;15862;43.062;25.626;2022-12-18T05:28:03;26.05;;;16.27;;
28682;SDS011;15862;43.062;25.626;2022-12-18T05:30:28;28.35;;;16.15;;
28682;SDS011;15862;43.062;25.626;2022-12-18T05:32:54;27.13;;;16.45;;
28682;SDS011;15862;43.062;25.626;2022-12-18T05:35:19;24.42;;;16.60;;
28682;SDS011;15862;43.062;25.626;2022-12-18T05:37:45;25.67;;;15.18;;
28682;SDS011;15862;43.062;25.626;2022-12-18T05:40:10;24.75;;;15.27;;
28682;SDS011;15862;43.062;25.626;2022-12-18T05:42:36;26.25;;;16.08;;
28682;SDS011;15862;43.062;25.626;2022-12-18T05:45:02;25.35;;;15.90;;
28682;SDS011;15862;43.062;25.626;2022-12-18T05:47:28;26.52;;;16.85;;
28682;SDS011;15862;43.062;25.626;2022-12-18T05:49:53;28.33;;;18.88;;
28682;SDS011;15862;43.062;25.626;2022-12-18T05:52:19;26.48;;;17.45;;
28682;SDS011;15862;43.062;25.626;2022-12-18T05:54:45;23.77;;;14.90;;
28682;SDS011;15862;43.062;25.626;2022-12-18T05:57:10;29.70;;;16.10;;
28682;SDS011;15862;43.062;25.626;2022-12-18T05:59:36;27.90;;;16.65;;
28682;SDS011;15862;43.062;25.626;2022-12-18T06:02:01;27.98;;;18.17;;
28682;SDS011;15862;43.062;25.626;2022-12-18T06:04:27;27.88;;;18.60;;
28682;SDS011;15862;43.062;25.626;2022-12-18T06:06:56;26.52;;;17.15;;
28682;SDS011;15862;43.062;25.626;2022-12-18T06:09:21;27.25;;;16.27;;
28682;SDS011;15862;43.062;25.626;2022-12-18T06:11:46;27.38;;;16.83;;
28682;SDS011;15862;43.062;25.626;2022-12-18T06:14:12;21.40;;;13.85;;
28682;SDS011;15862;43.062;25.626;2022-12-18T06:16:37;22.15;;;13.45;;
28682;SDS011;15862;43.062;25.626;2022-12-18T06:19:03;25.67;;;16.15;;
28682;SDS011;15862;43.062;25.626;2022-12-18T06:21:30;23.20;;;14.52;;
28682;SDS011;15862;43.062;25.626;2022-12-18T06:23:56;19.17;;;12.20;;
28682;SDS011;15862;43.062;25.626;2022-12-18T06:26:22;17.15;;;11.18;;
28682;SDS011;15862;43.062;25.626;2022-12-18T06:28:48;20.73;;;11.15;;
28682;SDS011;15862;43.062;25.626;2022-12-18T06:31:13;16.85;;;10.23;;
28682;SDS011;15862;43.062;25.626;2022-12-18T06:33:39;17.98;;;10.50;;
28682;SDS011;15862;43.062;25.626;2022-12-18T06:36:05;14.55;;;10.07;;
28682;SDS011;15862;43.062;25.626;2022-12-18T06:38:34;16.75;;;10.40;;
28682;SDS011;15862;43.062;25.626;2022-12-18T06:41:00;16.80;;;11.13;;
28682;SDS011;15862;43.062;25.626;2022-12-18T06:43:25;19.10;;;11.13;;
28682;SDS011;15862;43.062;25.626;2022-12-18T06:45:51;16.77;;;10.10;;
28682;SDS011;15862;43.062;25.626;2022-12-18T06:50:50;18.52;;;10.00;;
28682;SDS011;15862;43.062;25.626;2022-12-18T06:53:15;17.27;;;11.70;;
28682;SDS011;15862;43.062;25.626;2022-12-18T06:55:41;14.30;;;9.82;;
28682;SDS011;15862;43.062;25.626;2022-12-18T06:58:06;16.85;;;10.45;;
28682;SDS011;15862;43.062;25.626;2022-12-18T07:00:32;19.65;;;10.88;;
28682;SDS011;15862;43.062;25.626;2022-12-18T07:02:57;18.10;;;11.35;;
28682;SDS011;15862;43.062;25.626;2022-12-18T07:05:22;17.92;;;10.77;;
28682;SDS011;15862;43.062;25.626;2022-12-18T07:07:48;16.40;;;10.27;;
28682;SDS011;15862;43.062;25.626;2022-12-18T07:10:13;15.65;;;10.93;;
28682;SDS011;15862;43.062;25.626;2022-12-18T07:12:38;15.70;;;10.10;;
28682;SDS011;15862;43.062;25.626;2022-12-18T07:15:04;20.38;;;11.57;;
28682;SDS011;15862;43.062;25.626;2022-12-18T07:17:30;21.23;;;11.98;;
28682;SDS011;15862;43.062;25.626;2022-12-18T07:19:55;19.02;;;10.88;;
28682;SDS011;15862;43.062;25.626;2022-12-18T07:22:21;16.85;;;10.77;;
28682;SDS011;15862;43.062;25.626;2022-12-18T07:24:47;20.63;;;11.13;;
28682;SDS011;15862;43.062;25.626;2022-12-18T07:27:12;22.10;;;13.07;;
28682;SDS011;15862;43.062;25.626;2022-12-18T07:29:38;18.52;;;12.18;;
28682;SDS011;15862;43.062;25.626;2022-12-18T07:32:03;21.08;;;11.90;;
28682;SDS011;15862;43.062;25.626;2022-12-18T07:34:29;21.05;;;12.23;;
28682;SDS011;15862;43.062;25.626;2022-12-18T07:36:54;20.77;;;12.27;;
28682;SDS011;15862;43.062;25.626;2022-12-18T07:39:19;22.42;;;12.05;;
28682;SDS011;15862;43.062;25.626;2022-12-18T07:41:45;23.13;;;12.45;;
28682;SDS011;15862;43.062;25.626;2022-12-18T07:44:33;18.42;;;11.85;;
28682;SDS011;15862;43.062;25.626;2022-12-18T07:46:58;21.10;;;13.57;;
28682;SDS011;15862;43.062;25.626;2022-12-18T07:49:24;21.13;;;11.90;;
28682;SDS011;15862;43.062;25.626;2022-12-18T07:51:49;17.85;;;11.73;;
28682;SDS011;15862;43.062;25.626;2022-12-18T07:54:15;18.38;;;11.65;;
28682;SDS011;15862;43.062;25.626;2022-12-18T07:56:40;19.50;;;12.25;;
28682;SDS011;15862;43.062;25.626;2022-12-18T07:59:05;19.42;;;12.32;;
28682;SDS011;15862;43.062;25.626;2022-12-18T08:01:31;20.92;;;12.60;;
28682;SDS011;15862;43.062;25.626;2022-12-18T08:03:56;19.25;;;12.55;;
28682;SDS011;15862;43.062;25.626;2022-12-18T08:06:22;18.23;;;11.85;;
28682;SDS011;15862;43.062;25.626;2022-12-18T08:08:48;22.40;;;12.90;;
28682;SDS011;15862;43.062;25.626;2022-12-18T08:11:13;27.52;;;13.40;;
28682;SDS011;15862;43.062;25.626;2022-12-18T08:13:38;22.50;;;14.35;;
28682;SDS011;15862;43.062;25.626;2022-12-18T08:16:05;22.23;;;13.52;;
28682;SDS011;15862;43.062;25.626;2022-12-18T08:18:32;29.17;;;14.57;;
28682;SDS011;15862;43.062;25.626;2022-12-18T08:21:07;18.17;;;11.13;;
28682;SDS011;15862;43.062;25.626;2022-12-18T08:23:49;17.10;;;10.40;;
28682;SDS011;15862;43.062;25.626;2022-12-18T08:26:15;18.23;;;10.95;;
28682;SDS011;15862;43.062;25.626;2022-12-18T08:28:41;18.60;;;10.68;;
28682;SDS011;15862;43.062;25.626;2022-12-18T08:31:07;18.42;;;10.25;;
28682;SDS011;15862;43.062;25.626;2022-12-18T08:33:33;20.48;;;10.13;;
28682;SDS011;15862;43.062;25.626;2022-12-18T08:36:00;17.90;;;9.68;;
28682;SDS011;15862;43.062;25.626;2022-12-18T08:38:26;16.33;;;9.70;;
28682;SDS011;15862;43.062;25.626;2022-12-18T08:43:36;15.00;;;8.80;;
28682;SDS011;15862;43.062;25.626;2022-12-18T08:46:20;19.33;;;9.90;;
28682;SDS011;15862;43.062;25.626;2022-12-18T08:48:50;17.58;;;10.60;;
28682;SDS011;15862;43.062;25.626;2022-12-18T08:51:16;17.50;;;10.60;;
28682;SDS011;15862;43.062;25.626;2022-12-18T08:53:42;19.90;;;10.60;;
28682;SDS011;15862;43.062;25.626;2022-12-18T08:56:07;19.20;;;10.95;;
28682;SDS011;15862;43.062;25.626;2022-12-18T08:58:33;18.55;;;11.88;;
28682;SDS011;15862;43.062;25.626;2022-12-18T09:01:03;21.85;;;12.95;;
28682;SDS011;15862;43.062;25.626;2022-12-18T09:03:29;21.17;;;12.45;;
28682;SDS011;15862;43.062;25.626;2022-12-18T09:05:55;20.70;;;12.43;;
28682;SDS011;15862;43.062;25.626;2022-12-18T09:08:20;23.25;;;11.80;;
28682;SDS011;15862;43.062;25.626;2022-12-18T09:10:46;17.63;;;11.15;;
28682;SDS011;15862;43.062;25.626;2022-12-18T09:13:14;20.30;;;11.82;;
28682;SDS011;15862;43.062;25.626;2022-12-18T09:15:44;20.20;;;11.98;;
28682;SDS011;15862;43.062;25.626;2022-12-18T09:18:11;18.88;;;11.55;;
28682;SDS011;15862;43.062;25.626;2022-12-18T09:20:38;21.10;;;12.05;;
28682;SDS011;15862;43.062;25.626;2022-12-18T09:23:04;18.55;;;9.73;;
28682;SDS011;15862;43.062;25.626;2022-12-18T09:25:30;20.73;;;12.18;;
28682;SDS011;15862;43.062;25.626;2022-12-18T09:28:01;20.02;;;10.95;;
28682;SDS011;15862;43.062;25.626;2022-12-18T09:30:27;22.33;;;11.07;;
28682;SDS011;15862;43.062;25.626;2022-12-18T09:32:52;18.75;;;11.02;;
28682;SDS011;15862;43.062;25.626;2022-12-18T09:35:18;19.77;;;10.68;;
28682;SDS011;15862;43.062;25.626;2022-12-18T09:37:43;16.92;;;10.70;;
28682;SDS011;15862;43.062;25.626;2022-12-18T09:40:13;20.67;;;11.35;;
28682;SDS011;15862;43.062;25.626;2022-12-18T09:42:40;19.63;;;10.68;;
28682;SDS011;15862;43.062;25.626;2022-12-18T09:45:13;20.05;;;10.57;;
28682;SDS011;15862;43.062;25.626;2022-12-18T09:47:39;18.33;;;10.23;;
28682;SDS011;15862;43.062;25.626;2022-12-18T09:50:24;18.90;;;9.90;;
28682;SDS011;15862;43.062;25.626;2022-12-18T09:52:56;19.60;;;10.43;;
28682;SDS011;15862;43.062;25.626;2022-12-18T09:55:35;17.50;;;10.52;;
28682;SDS011;15862;43.062;25.626;2022-12-18T09:58:06;16.85;;;10.75;;
28682;SDS011;15862;43.062;25.626;2022-12-18T10:00:39;17.40;;;11.27;;
28682;SDS011;15862;43.062;25.626;2022-12-18T10:03:11;17.98;;;10.82;;
28682;SDS011;15862;43.062;25.626;2022-12-18T10:08:19;18.45;;;11.32;;
28682;SDS011;15862;43.062;25.626;2022-12-18T10:10:52;18.25;;;11.00;;
28682;SDS011;15862;43.062;25.626;2022-12-18T10:24:18;22.00;;;10.55;;
28682;SDS011;15862;43.062;25.626;2022-12-18T10:26:59;15.52;;;8.98;;
28682;SDS011;15862;43.062;25.626;2022-12-18T10:29:36;13.52;;;8.85;;
28682;SDS011;15862;43.062;25.626;2022-12-18T10:32:02;17.90;;;9.85;;
28682;SDS011;15862;43.062;25.626;2022-12-18T10:34:27;15.55;;;9.63;;
28682;SDS011;15862;43.062;25.626;2022-12-18T10:36:52;15.88;;;9.65;;
28682;SDS011;15862;43.062;25.626;2022-12-18T10:39:20;15.75;;;10.02;;
28682;SDS011;15862;43.062;25.626;2022-12-18T10:41:47;20.25;;;10.27;;
28682;SDS011;15862;43.062;25.626;2022-12-18T10:44:18;14.32;;;9.15;;
28682;SDS011;15862;43.062;25.626;2022-12-18T10:46:46;15.38;;;9.65;;
28682;SDS011;15862;43.062;25.626;2022-12-18T10:49:23;20.20;;;9.68;;
28682;SDS011;15862;43.062;25.626;2022-12-18T10:51:51;14.07;;;9.73;;
28682;SDS011;15862;43.062;25.626;2022-12-18T10:54:49;16.33;;;9.38;;
28682;SDS011;15862;43.062;25.626;2022-12-18T10:59:52;14.10;;;8.90;;
28682;SDS011;15862;43.062;25.626;2022-12-18T11:05:24;21.25;;;11.45;;
28682;SDS011;15862;43.062;25.626;2022-12-18T11:07:54;18.67;;;9.65;;
28682;SDS011;15862;43.062;25.626;2022-12-18T11:10:22;17.48;;;10.15;;
28682;SDS011;15862;43.062;25.626;2022-12-18T11:15:46;13.85;;;9.73;;
28682;SDS011;15862;43.062;25.626;2022-12-18T11:18:16;14.45;;;9.02;;
28682;SDS011;15862;43.062;25.626;2022-12-18T11:21:05;15.35;;;9.00;;
28682;SDS011;15862;43.062;25.626;2022-12-18T11:23:33;13.63;;;8.63;;
28682;SDS011;15862;43.062;25.626;2022-12-18T11:26:00;15.27;;;8.75;;
28682;SDS011;15862;43.062;25.626;2022-12-18T11:28:29;17.75;;;10.25;;
28682;SDS011;15862;43.062;25.626;2022-12-18T11:34:04;13.50;;;9.10;;
28682;SDS011;15862;43.062;25.626;2022-12-18T11:36:39;14.02;;;9.30;;
28682;SDS011;15862;43.062;25.626;2022-12-18T11:39:31;13.98;;;9.15;;
28682;SDS011;15862;43.062;25.626;2022-12-18T11:42:09;15.55;;;8.95;;
28682;SDS011;15862;43.062;25.626;2022-12-18T11:50:00;15.23;;;9.80;;
28682;SDS011;15862;43.062;25.626;2022-12-18T11:52:27;14.75;;;9.23;;
28682;SDS011;15862;43.062;25.626;2022-12-18T11:55:07;14.70;;;9.43;;
28682;SDS011;15862;43.062;25.626;2022-12-18T12:00:39;15.73;;;9.43;;
28682;SDS011;15862;43.062;25.626;2022-12-18T12:06:30;21.80;;;11.05;;
28682;SDS011;15862;43.062;25.626;2022-12-18T12:12:00;26.15;;;12.07;;
28682;SDS011;15862;43.062;25.626;2022-12-18T12:14:38;23.33;;;12.55;;
28682;SDS011;15862;43.062;25.626;2022-12-18T12:17:24;22.58;;;12.98;;
28682;SDS011;15862;43.062;25.626;2022-12-18T12:26:49;23.60;;;13.50;;
28682;SDS011;15862;43.062;25.626;2022-12-18T12:35:29;24.92;;;13.65;;
28682;SDS011;15862;43.062;25.626;2022-12-18T12:38:08;28.02;;;14.38;;
28682;SDS011;15862;43.062;25.626;2022-12-18T12:40:44;24.45;;;13.45;;
28682;SDS011;15862;43.062;25.626;2022-12-18T12:43:47;21.00;;;13.32;;
28682;SDS011;15862;43.062;25.626;2022-12-18T12:46:14;26.58;;;14.95;;
28682;SDS011;15862;43.062;25.626;2022-12-18T12:48:52;25.63;;;14.75;;
28682;SDS011;15862;43.062;25.626;2022-12-18T12:51:22;23.48;;;13.43;;
28682;SDS011;15862;43.062;25.626;2022-12-18T12:53:51;24.60;;;14.13;;
28682;SDS011;15862;43.062;25.626;2022-12-18T12:56:19;24.85;;;14.48;;
28682;SDS011;15862;43.062;25.626;2022-12-18T13:01:24;24.52;;;14.02;;
28682;SDS011;15862;43.062;25.626;2022-12-18T13:13:04;24.92;;;14.13;;
28682;SDS011;15862;43.062;25.626;2022-12-18T13:20:36;24.33;;;15.15;;
28682;SDS011;15862;43.062;25.626;2022-12-18T13:30:59;25.23;;;13.55;;
28682;SDS011;15862;43.062;25.626;2022-12-18T13:36:02;27.52;;;13.20;;
28682;SDS011;15862;43.062;25.626;2022-12-18T13:38:38;25.23;;;14.35;;
28682;SDS011;15862;43.062;25.626;2022-12-18T13:43:54;27.23;;;15.35;;
28682;SDS011;15862;43.062;25.626;2022-12-18T13:51:43;27.52;;;15.27;;
28682;SDS011;15862;43.062;25.626;2022-12-18T13:57:28;27.63;;;14.77;;
28682;SDS011;15862;43.062;25.626;2022-12-18T13:59:53;30.05;;;16.25;;
28682;SDS011;15862;43.062;25.626;2022-12-18T14:02:21;30.73;;;16.55;;
28682;SDS011;15862;43.062;25.626;2022-12-18T14:04:48;29.98;;;15.38;;
28682;SDS011;15862;43.062;25.626;2022-12-18T14:07:32;29.95;;;15.65;;
28682;SDS011;15862;43.062;25.626;2022-12-18T14:09:58;30.05;;;15.90;;
28682;SDS011;15862;43.062;25.626;2022-12-18T14:12:32;31.05;;;15.48;;
28682;SDS011;15862;43.062;25.626;2022-12-18T14:17:53;30.50;;;17.27;;
28682;SDS011;15862;43.062;25.626;2022-12-18T14:20:22;29.10;;;15.23;;
28682;SDS011;15862;43.062;25.626;2022-12-18T14:22:50;33.28;;;16.17;;
28682;SDS011;15862;43.062;25.626;2022-12-18T14:25:17;28.15;;;14.98;;
28682;SDS011;15862;43.062;25.626;2022-12-18T14:27:49;27.52;;;16.10;;
28682;SDS011;15862;43.062;25.626;2022-12-18T14:35:38;25.13;;;14.20;;
28682;SDS011;15862;43.062;25.626;2022-12-18T14:38:10;26.42;;;14.98;;
28682;SDS011;15862;43.062;25.626;2022-12-18T14:40:41;34.17;;;15.50;;
28682;SDS011;15862;43.062;25.626;2022-12-18T14:43:10;30.33;;;16.13;;
28682;SDS011;15862;43.062;25.626;2022-12-18T14:45:37;34.80;;;16.80;;
28682;SDS011;15862;43.062;25.626;2022-12-18T14:48:17;28.52;;;15.70;;
28682;SDS011;15862;43.062;25.626;2022-12-18T14:50:58;30.67;;;14.55;;
28682;SDS011;15862;43.062;25.626;2022-12-18T14:53:33;29.52;;;16.27;;
28682;SDS011;15862;43.062;25.626;2022-12-18T14:56:10;27.00;;;15.25;;
28682;SDS011;15862;43.062;25.626;2022-12-18T14:58:38;32.80;;;15.75;;
28682;SDS011;15862;43.062;25.626;2022-12-18T15:01:04;25.55;;;14.80;;
28682;SDS011;15862;43.062;25.626;2022-12-18T15:03:30;28.17;;;15.90;;
28682;SDS011;15862;43.062;25.626;2022-12-18T15:05:56;29.15;;;16.17;;
28682;SDS011;15862;43.062;25.626;2022-12-18T15:08:41;26.40;;;14.52;;
28682;SDS011;15862;43.062;25.626;2022-12-18T15:13:59;29.27;;;16.80;;
28682;SDS011;15862;43.062;25.626;2022-12-18T15:16:25;36.08;;;17.42;;
28682;SDS011;15862;43.062;25.626;2022-12-18T15:18:51;33.20;;;17.73;;
28682;SDS011;15862;43.062;25.626;2022-12-18T15:21:18;36.75;;;18.08;;
28682;SDS011;15862;43.062;25.626;2022-12-18T15:23:49;34.67;;;17.52;;
28682;SDS011;15862;43.062;25.626;2022-12-18T15:26:17;33.22;;;16.67;;
28682;SDS011;15862;43.062;25.626;2022-12-18T15:36:14;27.33;;;15.48;;
28682;SDS011;15862;43.062;25.626;2022-12-18T15:38:41;30.95;;;16.00;;
28682;SDS011;15862;43.062;25.626;2022-12-18T15:41:15;28.55;;;16.70;;
28682;SDS011;15862;43.062;25.626;2022-12-18T15:43:46;25.90;;;14.93;;
28682;SDS011;15862;43.062;25.626;2022-12-18T15:46:15;29.60;;;15.88;;
28682;SDS011;15862;43.062;25.626;2022-12-18T15:48:43;30.85;;;16.17;;
28682;SDS011;15862;43.062;25.626;2022-12-18T15:54:02;32.33;;;17.08;;
28682;SDS011;15862;43.062;25.626;2022-12-18T15:56:29;30.58;;;16.98;;
28682;SDS011;15862;43.062;25.626;2022-12-18T15:59:15;27.77;;;15.77;;
28682;SDS011;15862;43.062;25.626;2022-12-18T16:01:43;32.13;;;16.67;;
28682;SDS011;15862;43.062;25.626;2022-12-18T16:04:11;31.05;;;17.90;;
28682;SDS011;15862;43.062;25.626;2022-12-18T16:06:38;31.77;;;18.02;;
28682;SDS011;15862;43.062;25.626;2022-12-18T16:09:03;31.00;;;17.75;;
28682;SDS011;15862;43.062;25.626;2022-12-18T16:11:30;36.05;;;18.80;;
28682;SDS011;15862;43.062;25.626;2022-12-18T16:16:30;36.97;;;19.67;;
28682;SDS011;15862;43.062;25.626;2022-12-18T16:18:55;32.90;;;18.02;;
28682;SDS011;15862;43.062;25.626;2022-12-18T16:21:20;37.63;;;18.92;;
28682;SDS011;15862;43.062;25.626;2022-12-18T16:23:46;32.10;;;17.77;;
28682;SDS011;15862;43.062;25.626;2022-12-18T16:26:11;31.35;;;16.83;;
28682;SDS011;15862;43.062;25.626;2022-12-18T16:28:37;34.75;;;17.10;;
28682;SDS011;15862;43.062;25.626;2022-12-18T16:31:02;34.00;;;16.48;;
28682;SDS011;15862;43.062;25.626;2022-12-18T16:33:27;34.58;;;18.00;;
28682;SDS011;15862;43.062;25.626;2022-12-18T16:35:53;37.28;;;19.08;;
28682;SDS011;15862;43.062;25.626;2022-12-18T16:38:18;38.35;;;18.45;;
28682;SDS011;15862;43.062;25.626;2022-12-18T16:40:44;35.78;;;17.70;;
28682;SDS011;15862;43.062;25.626;2022-12-18T16:43:28;36.88;;;19.50;;
28682;SDS011;15862;43.062;25.626;2022-12-18T16:45:53;36.95;;;18.08;;
28682;SDS011;15862;43.062;25.626;2022-12-18T16:48:22;35.53;;;17.67;;
28682;SDS011;15862;43.062;25.626;2022-12-18T16:50:47;36.15;;;17.85;;
28682;SDS011;15862;43.062;25.626;2022-12-18T16:53:13;39.47;;;18.98;;
28682;SDS011;15862;43.062;25.626;2022-12-18T16:55:38;37.83;;;19.08;;